createdAt,value
2023-01-26T00:01:23.696Z,4.00
2023-01-26T00:03:50.837Z,5.57
2023-01-26T00:06:19.617Z,6.18
2023-01-26T00:08:48.452Z,5.03
2023-01-26T00:11:17.874Z,5.20
2023-01-26T00:13:44.536Z,5.10
2023-01-26T00:16:15.405Z,5.03
2023-01-26T00:18:43.542Z,3.97
2023-01-26T00:21:15.918Z,5.63
2023-01-26T00:26:11.027Z,7.20
2023-01-26T00:28:37.752Z,5.28
2023-01-26T00:31:06.513Z,5.47
2023-01-26T00:33:33.265Z,5.28
2023-01-26T00:36:00.237Z,5.20
2023-01-26T00:38:27.135Z,4.88
2023-01-26T00:40:54.155Z,4.20
2023-01-26T00:43:20.846Z,6.07
2023-01-26T00:45:48.448Z,4.63
2023-01-26T00:48:15.400Z,5.47
2023-01-26T00:50:42.050Z,5.35
2023-01-26T00:53:09.224Z,5.47
2023-01-26T00:55:35.972Z,5.60
2023-01-26T00:58:07.348Z,4.82
2023-01-26T01:00:36.448Z,4.40
2023-01-26T01:03:03.934Z,4.05
2023-01-26T01:05:32.314Z,5.03
2023-01-26T01:07:59.467Z,4.25
2023-01-26T01:10:28.861Z,6.28
2023-01-26T01:12:56.683Z,3.55
2023-01-26T01:15:24.377Z,5.70
2023-01-26T01:17:51.130Z,4.50
2023-01-26T01:20:17.863Z,6.45
2023-01-26T01:22:44.531Z,4.63
2023-01-26T01:25:11.245Z,5.22
2023-01-26T01:27:37.973Z,4.10
2023-01-26T01:30:08.096Z,4.40
2023-01-26T01:32:36.134Z,3.70
2023-01-26T01:35:03.073Z,5.75
2023-01-26T01:37:30.407Z,3.85
2023-01-26T01:39:57.036Z,3.22
2023-01-26T01:42:23.938Z,4.10
2023-01-26T01:45:21.457Z,3.33
2023-01-26T01:47:48.131Z,3.83
2023-01-26T01:50:18.458Z,3.63
2023-01-26T01:52:45.773Z,5.13
2023-01-26T01:55:14.921Z,3.67
2023-01-26T01:57:46.377Z,4.07
2023-01-26T02:00:16.590Z,6.43
2023-01-26T02:02:45.145Z,4.25
2023-01-26T02:05:27.055Z,3.65
2023-01-26T02:07:55.084Z,3.70
2023-01-26T02:10:22.131Z,6.32
2023-01-26T02:12:56.746Z,4.18
2023-01-26T02:15:23.877Z,4.97
2023-01-26T02:17:54.798Z,4.82
2023-01-26T02:20:33.592Z,5.10
2023-01-26T02:23:00.159Z,4.75
2023-01-26T02:25:42.689Z,4.47
2023-01-26T02:30:35.982Z,4.38
2023-01-26T02:33:02.635Z,4.07
2023-01-26T02:35:29.296Z,3.90
2023-01-26T02:37:55.956Z,3.80
2023-01-26T02:40:48.546Z,3.92
2023-01-26T02:43:15.439Z,3.53
2023-01-26T02:45:43.410Z,5.05
2023-01-26T02:48:10.011Z,4.03
2023-01-26T02:50:36.679Z,4.80
2023-01-26T02:53:04.283Z,5.88
2023-01-26T02:55:31.155Z,4.60
2023-01-26T02:58:03.514Z,6.63
2023-01-26T03:03:15.080Z,5.45
2023-01-26T03:05:42.521Z,4.05
2023-01-26T03:08:09.173Z,3.80
2023-01-26T03:10:35.847Z,5.68
2023-01-26T03:13:03.157Z,3.58
2023-01-26T03:15:43.378Z,4.65
2023-01-26T03:18:32.866Z,3.53
2023-01-26T03:21:20.369Z,3.15
2023-01-26T03:24:05.815Z,4.38
2023-01-26T03:26:51.060Z,6.70
2023-01-26T03:29:17.868Z,4.53
2023-01-26T03:31:44.661Z,5.18
2023-01-26T03:34:11.652Z,4.30
2023-01-26T03:36:38.288Z,4.53
2023-01-26T03:39:05.944Z,4.43
2023-01-26T03:41:50.916Z,3.38
2023-01-26T03:44:35.900Z,3.13
2023-01-26T03:47:20.785Z,4.57
2023-01-26T03:50:06.230Z,3.55
2023-01-26T03:52:51.736Z,4.75
2023-01-26T03:55:37.250Z,4.10
2023-01-26T03:58:03.951Z,3.03
2023-01-26T04:00:30.679Z,3.15
2023-01-26T04:03:16.032Z,3.03
2023-01-26T04:06:16.173Z,3.22
2023-01-26T04:08:44.820Z,3.58
2023-01-26T04:11:11.539Z,4.22
2023-01-26T04:13:56.802Z,3.72
2023-01-26T04:16:42.358Z,4.40
2023-01-26T04:19:27.950Z,3.63
2023-01-26T04:21:54.637Z,3.38
2023-01-26T04:24:22.646Z,3.97
2023-01-26T04:26:49.476Z,3.90
2023-01-26T04:29:17.054Z,3.45
2023-01-26T04:31:44.223Z,3.13
2023-01-26T04:34:14.099Z,3.25
2023-01-26T04:36:42.045Z,4.25
2023-01-26T04:39:09.710Z,3.28
2023-01-26T04:41:36.404Z,4.40
2023-01-26T04:44:03.131Z,3.00
2023-01-26T04:46:30.000Z,4.72
2023-01-26T04:48:56.779Z,3.28
2023-01-26T04:51:24.152Z,3.92
2023-01-26T04:53:51.483Z,3.35
2023-01-26T04:56:22.723Z,2.78
2023-01-26T04:58:49.389Z,4.15
2023-01-26T05:01:16.519Z,2.60
2023-01-26T05:03:43.250Z,3.20
2023-01-26T05:06:10.050Z,2.78
2023-01-26T05:08:37.308Z,2.97
2023-01-26T05:11:04.446Z,4.72
2023-01-26T05:13:31.338Z,4.00
2023-01-26T05:15:57.970Z,2.90
2023-01-26T05:18:24.609Z,3.00
2023-01-26T05:20:51.280Z,3.72
2023-01-26T05:23:17.986Z,3.17
2023-01-26T05:25:44.601Z,3.63
2023-01-26T05:28:11.294Z,2.95
2023-01-26T05:30:38.010Z,3.72
2023-01-26T05:33:07.147Z,3.10
2023-01-26T05:35:34.587Z,2.75
2023-01-26T05:38:01.472Z,3.50
2023-01-26T05:40:28.535Z,2.92
2023-01-26T05:42:55.404Z,2.63
2023-01-26T05:45:22.088Z,2.80
2023-01-26T05:47:48.800Z,2.42
2023-01-26T05:50:15.849Z,3.80
2023-01-26T05:52:44.142Z,2.33
2023-01-26T05:55:10.804Z,2.75
2023-01-26T05:57:37.460Z,2.92
2023-01-26T06:00:05.782Z,2.60
2023-01-26T06:02:32.562Z,3.55
2023-01-26T06:04:59.222Z,2.95
2023-01-26T06:07:26.490Z,1.90
2023-01-26T06:09:53.416Z,3.65
2023-01-26T06:12:22.159Z,2.63
2023-01-26T06:14:49.072Z,2.55
2023-01-26T06:17:17.297Z,4.20
2023-01-26T06:19:44.614Z,2.30
2023-01-26T06:22:12.617Z,2.28
2023-01-26T06:24:39.249Z,2.65
2023-01-26T06:27:08.870Z,2.13
2023-01-26T06:29:35.547Z,3.15
2023-01-26T06:32:02.174Z,3.17
2023-01-26T06:34:28.881Z,3.10
2023-01-26T06:36:56.493Z,3.67
2023-01-26T06:39:23.146Z,4.43
2023-01-26T06:41:49.787Z,2.72
2023-01-26T06:44:16.458Z,3.33
2023-01-26T06:46:43.056Z,2.40
2023-01-26T06:49:10.049Z,2.38
2023-01-26T06:51:57.336Z,2.63
2023-01-26T06:54:24.069Z,3.10
2023-01-26T06:56:50.725Z,2.05
2023-01-26T06:59:17.367Z,3.90
2023-01-26T07:01:47.352Z,3.42
2023-01-26T07:04:14.361Z,3.28
2023-01-26T07:06:41.081Z,2.47
2023-01-26T07:09:08.110Z,3.55
2023-01-26T07:11:34.740Z,2.75
2023-01-26T07:14:01.646Z,2.72
2023-01-26T07:16:28.478Z,2.03
2023-01-26T07:18:55.892Z,2.35
2023-01-26T07:21:23.328Z,5.82
2023-01-26T07:23:51.996Z,2.58
2023-01-26T07:26:19.110Z,4.07
2023-01-26T07:28:45.829Z,3.13
2023-01-26T07:31:12.924Z,3.17
2023-01-26T07:33:39.946Z,3.00
2023-01-26T07:36:07.451Z,2.95
2023-01-26T07:38:34.569Z,3.13
2023-01-26T07:41:06.660Z,2.22
2023-01-26T07:43:35.301Z,3.85
2023-01-26T07:46:02.011Z,2.42
2023-01-26T07:48:29.952Z,2.38
2023-01-26T07:51:00.997Z,3.42
2023-01-26T07:53:29.373Z,7.25
2023-01-26T07:56:06.578Z,3.10
2023-01-26T07:58:35.631Z,2.30
2023-01-26T08:01:20.997Z,2.72
2023-01-26T08:03:50.712Z,3.42
2023-01-26T08:06:18.619Z,2.53
2023-01-26T08:08:53.982Z,3.53
2023-01-26T08:11:22.860Z,3.42
2023-01-26T08:13:51.772Z,3.17
2023-01-26T08:16:18.813Z,2.67
2023-01-26T08:18:47.039Z,2.58
2023-01-26T08:21:15.518Z,2.80
2023-01-26T08:23:42.610Z,2.17
2023-01-26T08:26:12.666Z,2.53
2023-01-26T08:28:40.107Z,4.30
2023-01-26T08:31:20.059Z,4.13
2023-01-26T08:33:50.828Z,3.67
2023-01-26T08:36:21.830Z,2.35
2023-01-26T08:38:49.149Z,2.88
2023-01-26T08:41:15.888Z,3.42
2023-01-26T08:43:42.731Z,4.43
2023-01-26T08:46:10.012Z,5.22
2023-01-26T08:48:37.483Z,2.10
2023-01-26T08:51:06.054Z,2.60
2023-01-26T08:53:34.207Z,4.32
2023-01-26T08:56:06.168Z,4.20
2023-01-26T08:58:33.856Z,3.65
2023-01-26T09:01:08.512Z,2.70
2023-01-26T09:03:35.613Z,2.60
2023-01-26T09:06:04.450Z,2.28
2023-01-26T09:08:32.338Z,3.30
2023-01-26T09:10:59.310Z,3.22
2023-01-26T09:13:26.078Z,2.75
2023-01-26T09:15:52.815Z,2.25
2023-01-26T09:18:20.594Z,3.53
2023-01-26T09:20:47.312Z,3.13
2023-01-26T09:23:16.375Z,3.40
2023-01-26T09:25:43.036Z,3.33
2023-01-26T09:28:09.653Z,2.78
2023-01-26T09:30:36.444Z,2.70
2023-01-26T09:33:05.064Z,4.75
2023-01-26T09:35:31.721Z,2.58
2023-01-26T09:37:58.336Z,4.13
2023-01-26T09:40:42.110Z,3.30
2023-01-26T09:43:23.711Z,2.55
2023-01-26T09:46:18.259Z,1.77
2023-01-26T09:49:13.819Z,2.72
2023-01-26T09:51:47.936Z,2.20
2023-01-26T09:54:33.027Z,3.55
2023-01-26T09:57:10.955Z,2.83
2023-01-26T09:59:44.630Z,4.18
2023-01-26T10:02:11.341Z,2.33
2023-01-26T10:04:42.572Z,1.83
2023-01-26T10:07:12.367Z,3.60
2023-01-26T10:09:41.711Z,2.05
2023-01-26T10:12:17.235Z,2.10
2023-01-26T10:15:03.012Z,3.15
2023-01-26T10:17:37.013Z,2.65
2023-01-26T10:20:20.342Z,2.20
2023-01-26T10:22:51.984Z,3.72
2023-01-26T10:25:27.916Z,2.58
2023-01-26T10:27:54.722Z,1.95
2023-01-26T10:30:22.146Z,2.20
2023-01-26T10:32:52.463Z,2.85
2023-01-26T10:35:24.461Z,4.20
2023-01-26T10:37:53.243Z,2.03
2023-01-26T10:40:20.721Z,1.50
2023-01-26T10:42:59.492Z,2.38
2023-01-26T10:45:31.905Z,4.82
2023-01-26T10:48:20.285Z,2.17
2023-01-26T10:50:48.117Z,3.67
2023-01-26T10:53:19.105Z,2.42
2023-01-26T10:55:58.453Z,1.70
2023-01-26T10:58:55.487Z,2.85
2023-01-26T11:01:23.319Z,3.28
2023-01-26T11:04:05.916Z,2.17
2023-01-26T11:09:14.722Z,2.88
2023-01-26T11:11:42.185Z,2.08
2023-01-26T11:14:15.587Z,1.23
2023-01-26T11:16:50.249Z,1.70
2023-01-26T11:19:42.598Z,2.72
2023-01-26T11:22:13.480Z,2.60
2023-01-26T11:24:50.845Z,2.78
2023-01-26T11:27:52.914Z,3.70
2023-01-26T11:30:42.613Z,1.80
2023-01-26T11:33:40.296Z,2.38
2023-01-26T11:36:23.625Z,2.20
2023-01-26T11:39:14.964Z,1.30
2023-01-26T11:41:47.657Z,2.45
2023-01-26T11:44:42.658Z,2.90
2023-01-26T11:47:27.933Z,1.50
2023-01-26T11:50:16.202Z,3.20
2023-01-26T11:53:10.369Z,2.03
2023-01-26T11:56:10.846Z,2.80
2023-01-26T11:58:55.985Z,2.28
2023-01-26T12:01:29.088Z,1.77
2023-01-26T12:03:56.661Z,1.73
2023-01-26T12:06:38.052Z,1.52
2023-01-26T12:09:23.367Z,1.55
2023-01-26T12:12:13.235Z,1.67
2023-01-26T12:15:06.177Z,1.85
2023-01-26T12:18:03.885Z,2.05
2023-01-26T12:20:40.169Z,2.03
2023-01-26T12:23:09.696Z,3.75
2023-01-26T12:25:39.597Z,2.10
2023-01-26T12:28:29.303Z,1.60
2023-01-26T12:31:11.190Z,2.67
2023-01-26T12:33:39.311Z,2.38
2023-01-26T12:36:11.808Z,2.03
2023-01-26T12:39:12.453Z,1.73
2023-01-26T12:41:39.046Z,1.95
2023-01-26T12:44:05.842Z,1.65
2023-01-26T12:46:39.298Z,2.38
2023-01-26T12:49:24.513Z,2.88
2023-01-26T12:51:59.343Z,2.78
2023-01-26T12:54:44.404Z,1.88
2023-01-26T12:57:22.695Z,1.67
2023-01-26T12:59:50.054Z,2.13
2023-01-26T13:02:16.854Z,2.08
2023-01-26T13:04:47.145Z,1.70
2023-01-26T13:07:47.742Z,1.63
2023-01-26T13:10:14.967Z,1.42
2023-01-26T13:13:01.192Z,2.60
2023-01-26T13:15:31.219Z,1.35
2023-01-26T13:18:03.678Z,1.77
2023-01-26T13:20:48.415Z,2.85
2023-01-26T13:23:36.744Z,1.90
2023-01-26T13:26:26.045Z,3.08
2023-01-26T13:28:55.133Z,1.75
2023-01-26T13:31:33.815Z,1.85
2023-01-26T13:34:06.229Z,2.10
2023-01-26T13:36:36.384Z,2.67
2023-01-26T13:39:14.428Z,1.65
2023-01-26T13:41:47.097Z,2.13
2023-01-26T13:44:38.307Z,1.95
2023-01-26T13:47:28.601Z,1.70
2023-01-26T13:49:55.184Z,2.03
2023-01-26T13:52:25.606Z,1.50
2023-01-26T13:54:54.306Z,3.13
2023-01-26T13:57:27.747Z,1.80
2023-01-26T13:59:59.258Z,2.20
2023-01-26T14:02:34.834Z,2.05
2023-01-26T14:05:02.675Z,1.27
2023-01-26T14:07:42.720Z,2.65
2023-01-26T14:10:18.574Z,3.45
2023-01-26T14:12:58.898Z,2.08
2023-01-26T14:15:30.598Z,1.50
2023-01-26T14:18:02.538Z,1.50
2023-01-26T14:20:38.054Z,2.22
2023-01-26T14:23:07.831Z,1.70
2023-01-26T14:25:34.865Z,1.27
2023-01-26T14:28:01.611Z,1.50
2023-01-26T14:30:31.406Z,2.30
2023-01-26T14:33:13.998Z,2.47
2023-01-26T14:35:42.255Z,1.50
2023-01-26T14:38:11.839Z,2.13
2023-01-26T14:40:52.215Z,2.85
2023-01-26T14:43:19.957Z,1.60
2023-01-26T14:45:58.014Z,1.83
2023-01-26T14:48:33.078Z,3.08
2023-01-26T14:51:02.428Z,2.22
2023-01-26T14:53:29.172Z,1.52
2023-01-26T14:55:55.883Z,2.00
2023-01-26T14:58:29.507Z,3.28
2023-01-26T15:00:58.831Z,2.33
2023-01-26T15:03:33.679Z,2.92
2023-01-26T15:06:17.270Z,3.80
2023-01-26T15:09:00.449Z,2.17
2023-01-26T15:11:54.652Z,2.42
2023-01-26T15:14:37.662Z,2.13
2023-01-26T15:17:05.972Z,2.50
2023-01-26T15:19:39.870Z,2.00
2023-01-26T15:22:19.823Z,2.40
2023-01-26T15:24:58.843Z,3.72
2023-01-26T15:27:31.008Z,3.22
2023-01-26T15:29:59.846Z,1.95
2023-01-26T15:32:32.463Z,2.55
2023-01-26T15:35:18.896Z,2.50
2023-01-26T15:37:45.982Z,2.78
2023-01-26T15:40:15.354Z,2.65
2023-01-26T15:42:42.277Z,2.75
2023-01-26T15:45:23.651Z,2.83
2023-01-26T15:47:50.547Z,4.30
2023-01-26T15:50:27.293Z,2.45
2023-01-26T15:52:55.055Z,2.50
2023-01-26T15:55:26.623Z,2.13
2023-01-26T15:57:53.313Z,1.95
2023-01-26T16:00:20.213Z,2.78
2023-01-26T16:02:46.931Z,2.20
2023-01-26T16:05:20.118Z,3.13
2023-01-26T16:07:48.080Z,2.78
2023-01-26T16:10:20.286Z,2.53
2023-01-26T16:12:48.926Z,2.72
2023-01-26T16:15:27.892Z,2.30
2023-01-26T16:17:54.614Z,2.47
2023-01-26T16:20:21.245Z,2.08
2023-01-26T16:22:47.940Z,2.03
2023-01-26T16:25:24.475Z,2.38
2023-01-26T16:27:51.117Z,4.13
2023-01-26T16:30:18.514Z,3.47
2023-01-26T16:32:45.738Z,3.78
2023-01-26T16:35:15.221Z,4.05
2023-01-26T16:37:42.804Z,4.50
2023-01-26T16:40:11.934Z,3.17
2023-01-26T16:42:41.476Z,3.08
2023-01-26T16:45:16.391Z,4.15
2023-01-26T16:47:43.815Z,3.60
2023-01-26T16:50:11.580Z,3.67
2023-01-26T16:52:40.567Z,5.95
2023-01-26T16:55:12.806Z,3.75
2023-01-26T16:57:44.701Z,3.70
2023-01-26T17:00:17.001Z,3.20
2023-01-26T17:05:16.801Z,4.05
2023-01-26T17:10:11.745Z,3.05
2023-01-26T17:12:38.562Z,3.90
2023-01-26T17:15:07.010Z,4.35
2023-01-26T17:17:33.855Z,3.38
2023-01-26T17:20:17.490Z,4.45
2023-01-26T17:22:44.908Z,3.00
2023-01-26T17:25:13.768Z,3.63
2023-01-26T17:27:41.997Z,4.25
2023-01-26T17:30:09.515Z,4.00
2023-01-26T17:32:36.291Z,3.45
2023-01-26T17:35:02.959Z,3.85
2023-01-26T17:37:30.785Z,3.03
2023-01-26T17:39:57.472Z,4.20
2023-01-26T17:42:25.468Z,5.07
2023-01-26T17:44:52.257Z,5.00
2023-01-26T17:47:18.949Z,4.80
2023-01-26T17:49:45.593Z,4.95
2023-01-26T17:52:14.754Z,3.50
2023-01-26T17:54:41.537Z,2.50
2023-01-26T17:57:08.917Z,2.80
2023-01-26T17:59:36.430Z,3.47
2023-01-26T18:02:03.264Z,3.80
2023-01-26T18:04:31.470Z,2.08
2023-01-26T18:06:58.222Z,4.85
2023-01-26T18:09:25.290Z,3.53
2023-01-26T18:11:51.936Z,3.88
2023-01-26T18:14:18.755Z,4.85
2023-01-26T18:16:45.420Z,3.05
2023-01-26T18:19:12.165Z,3.70
2023-01-26T18:21:38.978Z,3.08
2023-01-26T18:24:06.357Z,4.72
2023-01-26T18:26:35.619Z,4.32
2023-01-26T18:29:04.303Z,3.97
2023-01-26T18:31:33.996Z,5.55
2023-01-26T18:34:02.170Z,5.97
2023-01-26T18:36:29.215Z,6.43
2023-01-26T18:38:58.738Z,5.85
2023-01-26T18:41:26.934Z,5.65
2023-01-26T18:43:55.630Z,6.75
2023-01-26T18:46:23.144Z,7.45
2023-01-26T18:48:53.024Z,8.02
2023-01-26T18:51:21.582Z,8.20
2023-01-26T18:53:48.222Z,5.95
2023-01-26T18:56:16.929Z,4.97
2023-01-26T18:58:44.154Z,6.18
2023-01-26T19:01:13.894Z,6.38
2023-01-26T19:03:42.219Z,6.32
2023-01-26T19:06:09.448Z,4.75
2023-01-26T19:08:36.083Z,3.75
2023-01-26T19:11:08.811Z,4.68
2023-01-26T19:13:35.920Z,4.60
2023-01-26T19:16:03.349Z,4.15
2023-01-26T19:18:30.034Z,3.28
2023-01-26T19:21:02.086Z,2.65
2023-01-26T19:23:29.188Z,3.55
2023-01-26T19:25:56.132Z,3.50
2023-01-26T19:28:22.844Z,5.55
2023-01-26T19:30:49.530Z,4.60
2023-01-26T19:33:25.706Z,5.45
2023-01-26T19:35:52.742Z,4.25
2023-01-26T19:38:20.660Z,5.72
2023-01-26T19:40:49.306Z,6.38
2023-01-26T19:43:16.519Z,8.77
2023-01-26T19:45:48.631Z,6.95
2023-01-26T19:48:15.681Z,6.28
2023-01-26T19:50:42.378Z,5.43
2023-01-26T19:53:09.014Z,5.25
2023-01-26T19:55:35.934Z,4.25
2023-01-26T19:58:02.608Z,4.20
2023-01-26T20:00:29.917Z,3.65
2023-01-26T20:02:56.660Z,6.20
2023-01-26T20:05:23.331Z,3.95
2023-01-26T20:07:49.978Z,3.60
2023-01-26T20:10:16.951Z,3.88
2023-01-26T20:12:43.607Z,3.55
2023-01-26T20:15:10.884Z,3.72
2023-01-26T20:17:37.686Z,4.25
2023-01-26T20:20:04.855Z,4.95
2023-01-26T20:22:33.641Z,4.03
2023-01-26T20:25:02.776Z,3.28
2023-01-26T20:27:30.324Z,3.90
2023-01-26T20:29:56.993Z,3.20
2023-01-26T20:32:23.986Z,4.10
2023-01-26T20:34:50.619Z,3.55
2023-01-26T20:37:17.541Z,3.00
2023-01-26T20:39:46.983Z,4.05
2023-01-26T20:42:16.617Z,3.63
2023-01-26T20:44:43.581Z,3.58
2023-01-26T20:47:10.404Z,3.33
2023-01-26T20:49:37.480Z,3.25
2023-01-26T20:52:08.129Z,3.35
2023-01-26T20:54:35.700Z,3.72
2023-01-26T20:57:02.600Z,3.40
2023-01-26T20:59:30.038Z,3.33
2023-01-26T21:01:57.215Z,3.03
2023-01-26T21:04:23.917Z,3.35
2023-01-26T21:06:50.625Z,3.10
2023-01-26T21:09:17.533Z,3.47
2023-01-26T21:11:44.195Z,2.92
2023-01-26T21:14:12.404Z,2.90
2023-01-26T21:16:39.690Z,2.10
2023-01-26T21:19:06.486Z,2.75
2023-01-26T21:21:33.282Z,3.33
2023-01-26T21:23:59.964Z,2.65
2023-01-26T21:26:27.910Z,3.08
2023-01-26T21:28:56.995Z,2.90
2023-01-26T21:31:25.728Z,2.88
2023-01-26T21:33:53.007Z,2.67
2023-01-26T21:36:22.704Z,4.28
2023-01-26T21:38:52.209Z,3.08
2023-01-26T21:41:41.720Z,3.38
2023-01-26T21:44:11.116Z,3.00
2023-01-26T21:46:38.578Z,4.75
2023-01-26T21:49:06.568Z,2.70
2023-01-26T21:51:51.893Z,2.80
2023-01-26T21:54:19.101Z,2.88
2023-01-26T21:56:45.831Z,3.60
2023-01-26T21:59:17.255Z,4.63
2023-01-26T22:01:49.398Z,3.27
2023-01-26T22:04:19.712Z,4.03
2023-01-26T22:06:46.577Z,3.00
2023-01-26T22:09:14.792Z,3.15
2023-01-26T22:11:41.784Z,3.40
2023-01-26T22:14:14.864Z,3.78
2023-01-26T22:16:42.292Z,2.90
2023-01-26T22:19:10.473Z,3.60
2023-01-26T22:21:37.803Z,3.15
2023-01-26T22:24:05.284Z,3.13
2023-01-26T22:26:32.119Z,3.63
2023-01-26T22:28:59.811Z,2.90
2023-01-26T22:31:28.936Z,2.83
2023-01-26T22:33:59.979Z,2.75
2023-01-26T22:36:27.436Z,3.25
2023-01-26T22:38:54.694Z,2.28
2023-01-26T22:41:25.290Z,2.70
2023-01-26T22:43:56.754Z,2.85
2023-01-26T22:46:24.873Z,2.70
2023-01-26T22:48:52.109Z,2.97
2023-01-26T22:51:24.924Z,2.50
2023-01-26T22:53:53.569Z,2.97
2023-01-26T22:56:20.858Z,2.97
2023-01-26T22:58:58.004Z,2.58
2023-01-26T23:01:26.453Z,2.65
2023-01-26T23:03:54.910Z,2.45
2023-01-26T23:06:22.024Z,2.83
2023-01-26T23:08:48.798Z,2.45
2023-01-26T23:11:18.358Z,2.92
2023-01-26T23:13:46.107Z,3.05
2023-01-26T23:16:13.129Z,2.70
2023-01-26T23:18:40.290Z,2.97
2023-01-26T23:21:07.692Z,2.63
2023-01-26T23:23:34.653Z,3.35
2023-01-26T23:26:02.355Z,3.25
2023-01-26T23:28:34.302Z,3.88
2023-01-26T23:31:01.559Z,3.05
2023-01-26T23:33:30.874Z,3.88
2023-01-26T23:35:58.124Z,3.53
2023-01-26T23:38:27.677Z,4.10
2023-01-26T23:40:54.749Z,3.80
2023-01-26T23:43:21.757Z,3.55
2023-01-26T23:45:50.061Z,3.85
2023-01-26T23:48:17.044Z,5.13
2023-01-26T23:50:43.899Z,4.18
2023-01-26T23:53:11.063Z,4.22
2023-01-26T23:55:42.141Z,4.32
2023-01-26T23:58:09.606Z,4.85
